createdAt,value
2023-01-25T00:00:00.684Z,10.3
2023-01-25T00:05:00.633Z,10.5
2023-01-25T00:10:00.647Z,11.1
2023-01-25T00:15:00.640Z,11.6
2023-01-25T00:20:00.658Z,11.1
2023-01-25T00:25:00.609Z,11.8
2023-01-25T00:30:00.643Z,12.4
2023-01-25T00:35:00.673Z,11.6
2023-01-25T00:40:00.645Z,11.6
2023-01-25T00:45:00.651Z,11.5
2023-01-25T00:50:00.644Z,12.5
2023-01-25T00:55:00.647Z,12.4
2023-01-25T01:00:00.657Z,11.2
2023-01-25T01:05:00.741Z,11.5
2023-01-25T01:10:00.640Z,11.3
2023-01-25T01:15:00.612Z,10.9
2023-01-25T01:20:00.663Z,11.1
2023-01-25T01:25:00.662Z,11.4
2023-01-25T01:30:00.649Z,10.6
2023-01-25T01:35:00.620Z,12.7
2023-01-25T01:40:00.662Z,10.2
2023-01-25T01:45:00.610Z,8.7
2023-01-25T01:50:00.649Z,7.9
2023-01-25T01:55:00.651Z,8.7
2023-01-25T02:00:00.650Z,7.9
2023-01-25T02:05:00.631Z,8.2
2023-01-25T02:10:00.666Z,8.6
2023-01-25T02:15:00.632Z,8.1
2023-01-25T02:20:00.655Z,8.4
2023-01-25T02:25:00.651Z,7.7
2023-01-25T02:30:00.660Z,8.4
2023-01-25T02:35:00.603Z,8.8
2023-01-25T02:40:00.655Z,8.0
2023-01-25T02:45:00.654Z,8.6
2023-01-25T02:50:00.636Z,8.0
2023-01-25T02:55:00.622Z,8.4
2023-01-25T03:00:00.876Z,9.0
2023-01-25T03:05:00.613Z,9.1
2023-01-25T03:10:00.665Z,8.8
2023-01-25T03:15:00.641Z,8.3
2023-01-25T03:20:00.675Z,9.4
2023-01-25T03:25:00.616Z,9.0
2023-01-25T03:30:00.635Z,9.0
2023-01-25T03:35:00.660Z,8.7
2023-01-25T03:40:00.653Z,9.8
2023-01-25T03:45:00.639Z,8.7
2023-01-25T03:50:00.651Z,9.9
2023-01-25T03:55:00.641Z,8.6
2023-01-25T04:00:00.642Z,10.0
2023-01-25T04:05:00.648Z,10.7
2023-01-25T04:10:00.803Z,10.8
2023-01-25T04:15:00.609Z,9.6
2023-01-25T04:20:00.804Z,11.1
2023-01-25T04:25:00.608Z,10.9
2023-01-25T04:30:00.695Z,9.8
2023-01-25T04:35:00.646Z,9.9
2023-01-25T04:40:00.624Z,9.3
2023-01-25T04:45:00.614Z,8.5
2023-01-25T04:50:00.645Z,8.9
2023-01-25T04:55:00.613Z,8.3
2023-01-25T05:00:00.683Z,7.4
2023-01-25T05:05:00.639Z,7.1
2023-01-25T05:10:00.634Z,8.2
2023-01-25T05:15:00.615Z,9.3
2023-01-25T05:20:00.662Z,9.8
2023-01-25T05:25:00.654Z,9.2
2023-01-25T05:30:00.669Z,9.8
2023-01-25T05:35:01.097Z,9.7
2023-01-25T05:40:00.603Z,9.2
2023-01-25T05:45:00.639Z,9.0
2023-01-25T05:50:00.652Z,9.3
2023-01-25T05:55:00.625Z,9.1
2023-01-25T06:00:00.613Z,9.2
2023-01-25T06:05:00.640Z,9.0
2023-01-25T06:10:00.634Z,10.0
2023-01-25T06:15:00.626Z,9.4
2023-01-25T06:20:00.665Z,10.2
2023-01-25T06:25:00.637Z,9.2
2023-01-25T06:30:00.648Z,8.9
2023-01-25T06:35:00.643Z,8.3
2023-01-25T06:40:00.688Z,8.2
2023-01-25T06:45:00.633Z,8.7
2023-01-25T06:50:00.667Z,7.8
2023-01-25T06:55:00.602Z,9.4
2023-01-25T07:00:00.649Z,9.0
2023-01-25T07:05:00.638Z,8.9
2023-01-25T07:10:00.688Z,8.7
2023-01-25T07:15:00.675Z,8.5
2023-01-25T07:20:00.613Z,9.7
2023-01-25T07:25:00.676Z,9.1
2023-01-25T07:30:00.622Z,9.1
2023-01-25T07:35:00.682Z,8.8
2023-01-25T07:40:00.636Z,10.0
2023-01-25T07:45:00.645Z,10.8
2023-01-25T07:50:00.605Z,10.9
2023-01-25T07:55:00.823Z,10.2
2023-01-25T08:00:00.649Z,10.4
2023-01-25T08:05:00.610Z,11.8
2023-01-25T08:10:00.676Z,11.1
2023-01-25T08:15:00.625Z,11.8
2023-01-25T08:20:00.643Z,10.5
2023-01-25T08:25:00.635Z,11.4
2023-01-25T08:30:00.697Z,11.0
2023-01-25T08:35:00.607Z,11.0
2023-01-25T08:40:00.631Z,11.6
2023-01-25T08:45:00.832Z,11.0
2023-01-25T08:50:00.656Z,10.4
2023-01-25T08:55:00.644Z,10.4
2023-01-25T09:00:00.646Z,10.7
2023-01-25T09:05:00.623Z,10.9
2023-01-25T09:10:00.660Z,11.2
2023-01-25T09:15:00.662Z,10.5
2023-01-25T09:20:00.642Z,11.5
2023-01-25T09:25:00.614Z,11.8
2023-01-25T09:30:02.334Z,12.9
2023-01-25T09:35:00.613Z,12.5
2023-01-25T09:40:00.656Z,12.3
2023-01-25T09:45:00.639Z,13.2
2023-01-25T09:50:00.620Z,12.7
2023-01-25T09:55:00.640Z,13.6
2023-01-25T10:00:01.858Z,15.4
2023-01-25T10:05:00.614Z,14.7
2023-01-25T10:10:00.673Z,14.6
2023-01-25T10:15:00.652Z,15.0
2023-01-25T10:20:00.647Z,15.5
2023-01-25T10:25:00.627Z,16.4
2023-01-25T10:30:00.662Z,18.0
2023-01-25T10:35:01.660Z,18.1
2023-01-25T10:40:00.650Z,15.7
2023-01-25T10:45:00.918Z,16.8
2023-01-25T10:50:00.651Z,16.8
2023-01-25T10:55:00.632Z,17.4
2023-01-25T11:00:01.051Z,15.8
2023-01-25T11:05:00.628Z,16.3
2023-01-25T11:10:00.610Z,16.4
2023-01-25T11:15:00.658Z,16.7
2023-01-25T11:20:00.647Z,15.0
2023-01-25T11:25:00.610Z,16.7
2023-01-25T11:30:00.677Z,15.9
2023-01-25T11:35:00.618Z,17.5
2023-01-25T11:40:00.669Z,16.4
2023-01-25T11:45:00.643Z,18.5
2023-01-25T11:50:00.653Z,16.2
2023-01-25T11:55:00.614Z,14.0
2023-01-25T12:00:02.667Z,14.8
2023-01-25T12:05:06.279Z,14.1
2023-01-25T12:10:00.625Z,15.0
2023-01-25T12:15:00.651Z,14.1
2023-01-25T12:20:00.628Z,13.1
2023-01-25T12:25:00.656Z,12.9
2023-01-25T12:30:00.635Z,13.4
2023-01-25T12:35:00.650Z,11.8
2023-01-25T12:40:00.656Z,11.9
2023-01-25T12:45:00.617Z,12.7
2023-01-25T12:50:00.890Z,12.2
2023-01-25T12:55:00.646Z,13.1
2023-01-25T13:00:00.735Z,12.1
2023-01-25T13:05:00.660Z,12.8
2023-01-25T13:10:00.646Z,13.2
2023-01-25T13:15:00.624Z,12.0
2023-01-25T13:20:00.730Z,11.8
2023-01-25T13:25:00.641Z,13.5
2023-01-25T13:30:00.649Z,12.9
2023-01-25T13:35:00.667Z,11.9
2023-01-25T13:40:06.609Z,14.2
2023-01-25T13:45:00.674Z,13.5
2023-01-25T13:50:00.650Z,13.0
2023-01-25T13:55:00.673Z,15.8
2023-01-25T14:00:09.804Z,15.0
2023-01-25T14:05:00.618Z,15.7
2023-01-25T14:10:00.648Z,15.3
2023-01-25T14:15:00.609Z,14.5
2023-01-25T14:20:00.648Z,14.9
2023-01-25T14:25:00.687Z,17.0
2023-01-25T14:30:00.637Z,16.6
2023-01-25T14:35:00.648Z,15.3
2023-01-25T14:40:00.617Z,15.7
2023-01-25T14:45:00.699Z,16.8
2023-01-25T14:50:00.609Z,17.7
2023-01-25T14:55:00.640Z,19.6
2023-01-25T15:00:00.678Z,16.5
2023-01-25T15:05:02.854Z,17.2
2023-01-25T15:10:00.624Z,17.2
2023-01-25T15:15:00.659Z,17.8
2023-01-25T15:20:00.628Z,17.9
2023-01-25T15:25:00.653Z,16.5
2023-01-25T15:30:00.640Z,16.6
2023-01-25T15:35:02.311Z,15.9
2023-01-25T15:40:00.626Z,16.9
2023-01-25T15:45:00.652Z,15.6
2023-01-25T15:50:00.689Z,15.9
2023-01-25T15:55:02.101Z,15.9
2023-01-25T16:00:02.338Z,15.5
2023-01-25T16:05:00.652Z,16.2
2023-01-25T16:10:00.770Z,15.0
2023-01-25T16:15:00.613Z,14.4
2023-01-25T16:20:00.643Z,15.1
2023-01-25T16:25:00.671Z,15.4
2023-01-25T16:30:00.673Z,15.5
2023-01-25T16:35:00.606Z,15.5
2023-01-25T16:40:00.644Z,14.0
2023-01-25T16:45:00.603Z,15.1
2023-01-25T16:50:00.646Z,14.3
2023-01-25T16:55:00.664Z,13.4
2023-01-25T17:00:03.038Z,13.5
2023-01-25T17:05:00.667Z,14.1
2023-01-25T17:10:00.643Z,13.0
2023-01-25T17:15:00.617Z,14.2
2023-01-25T17:20:00.687Z,13.0
2023-01-25T17:25:00.680Z,14.2
2023-01-25T17:30:00.662Z,15.1
2023-01-25T17:35:00.639Z,14.8
2023-01-25T17:40:00.667Z,14.8
2023-01-25T17:45:00.639Z,17.7
2023-01-25T17:50:00.618Z,17.4
2023-01-25T17:55:00.682Z,17.0
2023-01-25T18:00:00.639Z,15.7
2023-01-25T18:05:00.651Z,16.1
2023-01-25T18:10:00.607Z,18.4
2023-01-25T18:15:00.652Z,20.0
2023-01-25T18:20:00.611Z,19.6
2023-01-25T18:25:00.671Z,19.3
2023-01-25T18:30:00.661Z,19.2
2023-01-25T18:35:00.653Z,19.7
2023-01-25T18:40:00.624Z,20.3
2023-01-25T18:45:00.640Z,24.0
2023-01-25T18:50:00.674Z,23.1
2023-01-25T18:55:00.612Z,22.8
2023-01-25T19:00:00.715Z,21.6
2023-01-25T19:05:00.666Z,21.0
2023-01-25T19:10:00.654Z,20.5
2023-01-25T19:15:00.613Z,21.4
2023-01-25T19:20:00.645Z,23.3
2023-01-25T19:25:00.642Z,20.6
2023-01-25T19:30:00.611Z,19.2
2023-01-25T19:35:00.725Z,19.6
2023-01-25T19:40:00.636Z,21.4
2023-01-25T19:45:00.637Z,21.1
2023-01-25T19:50:00.675Z,22.3
2023-01-25T19:55:00.615Z,21.8
2023-01-25T20:00:00.662Z,21.1
2023-01-25T20:05:00.648Z,19.4
2023-01-25T20:10:00.639Z,19.4
2023-01-25T20:15:00.619Z,21.6
2023-01-25T20:20:00.657Z,19.5
2023-01-25T20:25:00.634Z,17.4
2023-01-25T20:30:00.646Z,18.0
2023-01-25T20:35:00.624Z,17.7
2023-01-25T20:40:00.665Z,23.2
2023-01-25T20:45:00.620Z,18.9
2023-01-25T20:50:00.657Z,19.0
2023-01-25T20:55:00.676Z,18.1
2023-01-25T21:00:00.628Z,18.9
2023-01-25T21:05:00.655Z,18.6
2023-01-25T21:10:00.634Z,19.8
2023-01-25T21:15:00.643Z,19.7
2023-01-25T21:20:00.623Z,19.3
2023-01-25T21:25:00.690Z,19.9
2023-01-25T21:30:00.607Z,20.5
2023-01-25T21:35:00.619Z,19.5
2023-01-25T21:40:00.634Z,21.1
2023-01-25T21:45:00.642Z,19.1
2023-01-25T21:50:00.645Z,21.7
2023-01-25T21:55:00.666Z,22.2
2023-01-25T22:00:02.801Z,21.5
2023-01-25T22:05:00.628Z,22.9
2023-01-25T22:10:00.660Z,22.5
2023-01-25T22:15:00.662Z,22.1
2023-01-25T22:20:00.656Z,24.9
2023-01-25T22:25:00.611Z,23.0
2023-01-25T22:30:00.653Z,21.3
2023-01-25T22:35:00.655Z,22.1
2023-01-25T22:40:00.646Z,23.2
2023-01-25T22:45:00.625Z,20.3
2023-01-25T22:50:00.657Z,20.5
2023-01-25T22:55:00.636Z,20.2
2023-01-25T23:00:00.656Z,20.4
2023-01-25T23:05:00.604Z,21.1
2023-01-25T23:10:02.177Z,22.1
2023-01-25T23:15:00.601Z,22.0
2023-01-25T23:20:00.647Z,23.4
2023-01-25T23:25:00.642Z,19.3
2023-01-25T23:30:00.670Z,20.2
2023-01-25T23:35:00.614Z,21.8
2023-01-25T23:40:00.645Z,20.8
2023-01-25T23:45:00.672Z,21.4
2023-01-25T23:50:00.641Z,24.0
2023-01-25T23:55:00.671Z,26.6
